createdAt,value
2018-11-02T00:01:49.164Z,2.50
2018-11-02T00:04:17.795Z,2.17
2018-11-02T00:06:46.468Z,2.00
2018-11-02T00:09:15.125Z,3.83
2018-11-02T00:11:43.757Z,1.90
2018-11-02T00:14:12.422Z,1.90
2018-11-02T00:16:41.051Z,2.07
2018-11-02T00:19:09.694Z,2.33
2018-11-02T00:21:38.344Z,2.10
2018-11-02T00:24:06.984Z,1.53
2018-11-02T00:26:35.649Z,1.80
2018-11-02T00:29:04.921Z,1.87
2018-11-02T00:31:33.596Z,1.77
2018-11-02T00:34:02.233Z,2.07
2018-11-02T00:36:30.923Z,2.00
2018-11-02T00:44:45.291Z,1.70
2018-11-02T00:47:13.958Z,3.33
2018-11-02T00:49:42.581Z,1.87
2018-11-02T00:52:11.230Z,1.37
2018-11-02T00:54:39.878Z,1.50
2018-11-02T00:57:08.502Z,2.30
2018-11-02T00:59:37.152Z,1.17
2018-11-02T01:02:06.710Z,1.30
2018-11-02T01:04:35.373Z,1.37
2018-11-02T01:07:03.985Z,1.40
2018-11-02T01:09:32.676Z,1.53
2018-11-02T01:14:55.087Z,1.30
2018-11-02T01:17:23.356Z,1.50
2018-11-02T01:19:52.031Z,1.43
2018-11-02T01:22:20.678Z,1.70
2018-11-02T01:24:49.322Z,1.67
2018-11-02T01:27:17.959Z,1.37
2018-11-02T01:29:46.633Z,2.97
2018-11-02T01:32:15.267Z,1.73
2018-11-02T01:34:43.922Z,1.33
2018-11-02T01:37:12.585Z,1.90
2018-11-02T01:39:41.249Z,1.60
2018-11-02T01:42:09.960Z,1.60
2018-11-02T01:44:38.629Z,1.37
2018-11-02T01:47:07.499Z,1.10
2018-11-02T01:49:40.137Z,1.37
2018-11-02T01:52:08.861Z,1.53
2018-11-02T01:54:37.559Z,1.17
2018-11-02T01:57:06.465Z,1.20
2018-11-02T01:59:35.255Z,1.67
2018-11-02T02:02:04.252Z,1.70
2018-11-02T02:04:32.967Z,1.53
2018-11-02T02:07:01.703Z,1.60
2018-11-02T02:09:30.369Z,3.53
2018-11-02T02:11:59.053Z,1.30
2018-11-02T02:14:27.684Z,1.37
2018-11-02T02:16:56.312Z,1.27
2018-11-02T02:19:25.037Z,1.47
2018-11-02T02:21:53.764Z,1.80
2018-11-02T02:24:22.453Z,1.37
2018-11-02T02:26:51.165Z,3.03
2018-11-02T02:29:19.849Z,1.53
2018-11-02T02:31:48.469Z,1.70
2018-11-02T02:34:17.164Z,1.67
2018-11-02T02:36:45.927Z,1.27
2018-11-02T02:39:14.559Z,1.83
2018-11-02T02:41:43.204Z,1.30
2018-11-02T02:44:11.881Z,1.20
2018-11-02T02:46:40.512Z,1.40
2018-11-02T02:49:09.169Z,1.20
2018-11-02T02:51:37.908Z,1.40
2018-11-02T02:54:06.568Z,1.40
2018-11-02T02:56:35.273Z,1.40
2018-11-02T02:59:03.901Z,1.60
2018-11-02T03:01:32.537Z,1.70
2018-11-02T03:04:01.246Z,1.93
2018-11-02T03:06:29.996Z,1.60
2018-11-02T03:08:59.651Z,2.00
2018-11-02T03:11:51.174Z,1.83
2018-11-02T03:14:19.810Z,1.53
2018-11-02T03:16:48.617Z,1.20
2018-11-02T03:19:17.240Z,1.60
2018-11-02T03:21:46.610Z,1.33
2018-11-02T03:24:15.344Z,1.63
2018-11-02T03:26:43.947Z,1.93
2018-11-02T03:29:22.534Z,2.23
2018-11-02T03:31:51.275Z,1.60
2018-11-02T03:34:19.955Z,1.57
2018-11-02T03:39:41.899Z,3.70
2018-11-02T03:42:10.584Z,1.77
2018-11-02T03:44:39.268Z,1.60
2018-11-02T03:47:07.988Z,1.50
2018-11-02T03:49:39.562Z,1.67
2018-11-02T03:52:24.279Z,2.40
2018-11-02T03:54:52.964Z,3.27
2018-11-02T03:57:21.657Z,2.37
2018-11-02T03:59:50.582Z,2.80
2018-11-02T04:02:19.286Z,2.20
2018-11-02T04:04:47.975Z,2.30
2018-11-02T04:10:10.950Z,2.47
2018-11-02T04:12:39.960Z,2.70
2018-11-02T04:15:08.589Z,2.80
2018-11-02T04:17:37.612Z,2.60
2018-11-02T04:20:07.575Z,2.30
2018-11-02T04:22:36.241Z,2.80
2018-11-02T04:25:05.212Z,3.80
2018-11-02T04:27:33.894Z,3.10
2018-11-02T04:30:02.572Z,2.70
2018-11-02T04:32:31.298Z,2.17
2018-11-02T04:34:59.965Z,2.20
2018-11-02T04:37:28.655Z,2.50
2018-11-02T04:40:00.967Z,2.23
2018-11-02T04:42:29.681Z,2.33
2018-11-02T04:44:58.332Z,2.10
2018-11-02T04:47:27.032Z,2.47
2018-11-02T04:49:55.721Z,2.07
2018-11-02T04:52:24.452Z,2.43
2018-11-02T04:54:53.141Z,2.20
2018-11-02T04:57:32.199Z,3.00
2018-11-02T05:00:00.915Z,2.60
2018-11-02T05:02:29.572Z,2.77
2018-11-02T05:04:58.225Z,2.60
2018-11-02T05:07:26.888Z,2.80
2018-11-02T05:09:58.596Z,2.63
2018-11-02T05:12:27.415Z,2.37
2018-11-02T05:14:56.106Z,2.30
2018-11-02T05:17:24.748Z,2.33
2018-11-02T05:19:53.381Z,4.23
2018-11-02T05:22:22.032Z,2.97
2018-11-02T05:24:50.709Z,2.93
2018-11-02T05:27:19.369Z,2.67
2018-11-02T05:29:49.117Z,3.30
2018-11-02T05:32:17.800Z,4.70
2018-11-02T05:34:46.443Z,3.60
2018-11-02T05:37:15.127Z,3.73
2018-11-02T05:39:43.857Z,3.50
2018-11-02T05:45:06.481Z,2.70
2018-11-02T05:47:35.259Z,3.30
2018-11-02T05:50:03.936Z,4.93
2018-11-02T05:52:32.568Z,2.60
2018-11-02T05:55:01.375Z,3.30
2018-11-02T05:57:30.016Z,3.67
2018-11-02T05:59:58.675Z,2.60
2018-11-02T06:02:27.318Z,10.80
2018-11-02T06:04:56.669Z,3.33
2018-11-02T06:07:25.379Z,3.23
2018-11-02T06:09:54.085Z,3.30
2018-11-02T06:12:22.741Z,3.40
2018-11-02T06:14:51.421Z,3.83
2018-11-02T06:17:20.103Z,3.00
2018-11-02T06:19:48.740Z,2.77
2018-11-02T06:22:17.393Z,5.83
2018-11-02T06:27:39.104Z,4.13
2018-11-02T06:30:14.441Z,5.17
2018-11-02T06:32:47.809Z,7.00
2018-11-02T06:35:16.498Z,8.33
2018-11-02T06:37:45.160Z,5.47
2018-11-02T06:40:13.782Z,7.47
2018-11-02T06:42:42.519Z,5.43
2018-11-02T06:45:11.726Z,6.30
2018-11-02T06:47:40.490Z,6.13
2018-11-02T06:50:10.261Z,6.40
2018-11-02T06:52:39.064Z,6.10
2018-11-02T07:03:48.125Z,9.83
2018-11-02T07:06:16.768Z,6.37
2018-11-02T07:08:45.397Z,6.23
2018-11-02T07:11:14.036Z,6.70
2018-11-02T07:13:42.719Z,8.13
2018-11-02T07:16:18.866Z,7.63
2018-11-02T07:18:47.555Z,7.20
2018-11-02T07:21:16.235Z,7.90
2018-11-02T07:23:44.868Z,7.90
2018-11-02T07:26:13.764Z,8.40
2018-11-02T07:28:42.428Z,8.37
2018-11-02T07:31:11.112Z,9.60
2018-11-02T07:33:39.928Z,9.00
2018-11-02T07:36:08.648Z,8.80
2018-11-02T07:38:37.341Z,10.50
2018-11-02T07:41:06.162Z,10.40
2018-11-02T07:43:34.873Z,10.30
2018-11-02T07:46:03.633Z,10.40
2018-11-02T07:48:42.205Z,11.57
2018-11-02T07:51:10.974Z,12.27
2018-11-02T07:53:39.604Z,11.30
2018-11-02T07:56:08.287Z,11.23
2018-11-02T07:58:37.007Z,11.27
2018-11-02T08:01:05.657Z,12.90
2018-11-02T08:03:34.322Z,14.30
2018-11-02T08:06:03.228Z,13.70
2018-11-02T08:08:31.921Z,12.50
2018-11-02T08:11:00.575Z,11.40
2018-11-02T08:13:29.293Z,12.93
2018-11-02T08:15:58.008Z,12.00
2018-11-02T08:18:26.648Z,10.13
2018-11-02T08:20:55.339Z,10.43
2018-11-02T08:23:23.983Z,10.37
2018-11-02T08:25:59.852Z,9.80
2018-11-02T08:28:28.484Z,9.07
2018-11-02T08:30:57.135Z,10.70
2018-11-02T08:33:25.782Z,14.83
2018-11-02T08:35:54.523Z,15.13
2018-11-02T08:38:23.194Z,9.20
2018-11-02T08:40:51.824Z,10.30
2018-11-02T08:43:20.474Z,14.67
2018-11-02T08:45:49.264Z,12.27
2018-11-02T08:48:18.029Z,11.00
2018-11-02T08:50:46.732Z,11.20
2018-11-02T08:53:16.252Z,14.50
2018-11-02T08:55:44.984Z,10.47
2018-11-02T08:58:14.208Z,10.67
2018-11-02T09:00:42.837Z,12.50
2018-11-02T09:03:11.499Z,13.60
2018-11-02T09:05:40.196Z,10.70
2018-11-02T09:08:08.871Z,11.20
2018-11-02T09:10:37.479Z,15.67
2018-11-02T09:13:12.063Z,8.70
2018-11-02T09:15:40.845Z,8.80
2018-11-02T09:18:10.100Z,10.03
2018-11-02T09:20:39.168Z,10.20
2018-11-02T09:23:08.532Z,12.77
2018-11-02T09:25:37.490Z,11.60
2018-11-02T09:28:06.738Z,8.90
2018-11-02T09:30:35.727Z,11.87
2018-11-02T09:33:05.381Z,10.57
2018-11-02T09:35:34.069Z,15.70
2018-11-02T09:38:02.735Z,13.50
2018-11-02T09:40:40.616Z,10.87
2018-11-02T09:43:09.908Z,11.23
2018-11-02T09:45:39.380Z,11.33
2018-11-02T09:48:08.010Z,10.63
2018-11-02T09:50:36.656Z,7.63
2018-11-02T09:53:05.909Z,8.10
2018-11-02T09:55:34.633Z,7.13
2018-11-02T09:58:03.393Z,9.17
2018-11-02T10:00:32.270Z,8.07
2018-11-02T10:03:01.397Z,9.57
2018-11-02T10:05:30.069Z,13.50
2018-11-02T10:07:58.751Z,9.43
2018-11-02T10:10:27.497Z,10.47
2018-11-02T10:12:56.286Z,10.13
2018-11-02T10:15:30.481Z,11.20
2018-11-02T10:17:59.167Z,13.23
2018-11-02T10:20:27.791Z,14.53
2018-11-02T10:22:56.421Z,11.40
2018-11-02T10:25:25.241Z,10.33
2018-11-02T10:27:54.085Z,9.63
2018-11-02T10:30:23.341Z,12.27
2018-11-02T10:32:53.944Z,20.33
2018-11-02T10:35:22.742Z,20.20
2018-11-02T10:37:51.963Z,21.47
2018-11-02T10:40:21.777Z,15.60
2018-11-02T10:43:00.600Z,10.00
2018-11-02T10:45:34.408Z,6.50
2018-11-02T10:48:16.880Z,6.10
2018-11-02T10:50:45.585Z,6.60
2018-11-02T10:53:16.332Z,4.80
2018-11-02T10:55:44.984Z,4.40
2018-11-02T10:58:13.617Z,3.70
2018-11-02T11:00:47.672Z,3.17
2018-11-02T11:06:27.767Z,3.43
2018-11-02T11:08:56.524Z,4.60
2018-11-02T11:11:25.210Z,4.40
2018-11-02T11:13:53.896Z,5.20
2018-11-02T11:16:32.659Z,5.63
2018-11-02T11:19:01.329Z,9.30
2018-11-02T11:21:30.172Z,6.10
2018-11-02T11:24:05.433Z,5.20
2018-11-02T11:29:47.814Z,5.07
2018-11-02T11:32:16.586Z,5.33
2018-11-02T11:34:45.254Z,4.63
2018-11-02T11:37:26.974Z,4.30
2018-11-02T11:39:55.599Z,4.97
2018-11-02T11:42:24.364Z,3.10
2018-11-02T11:44:58.936Z,3.50
2018-11-02T11:47:27.582Z,3.70
2018-11-02T11:49:56.429Z,3.10
2018-11-02T11:52:25.192Z,3.83
2018-11-02T11:54:53.942Z,4.00
2018-11-02T11:57:22.809Z,3.23
2018-11-02T11:59:51.492Z,3.47
2018-11-02T12:02:20.254Z,4.00
2018-11-02T12:04:48.918Z,3.20
2018-11-02T12:07:17.541Z,3.93
2018-11-02T12:09:46.221Z,3.73
2018-11-02T12:12:14.873Z,4.10
2018-11-02T12:14:45.765Z,3.90
2018-11-02T12:17:14.446Z,6.40
2018-11-02T12:19:43.157Z,4.00
2018-11-02T12:22:11.816Z,4.40
2018-11-02T12:24:40.544Z,4.67
2018-11-02T12:27:09.235Z,3.93
2018-11-02T12:29:44.427Z,4.17
2018-11-02T12:32:13.366Z,4.53
2018-11-02T12:34:42.051Z,4.10
2018-11-02T12:37:11.189Z,4.37
2018-11-02T12:39:39.853Z,4.20
2018-11-02T12:42:08.592Z,3.90
2018-11-02T12:44:37.255Z,3.70
2018-11-02T12:47:06.137Z,3.90
2018-11-02T12:49:35.163Z,3.00
2018-11-02T12:52:04.269Z,3.70
2018-11-02T12:54:33.026Z,3.83
2018-11-02T12:57:05.566Z,4.10
2018-11-02T12:59:34.290Z,5.73
2018-11-02T13:02:02.972Z,3.83
2018-11-02T13:04:31.663Z,3.43
2018-11-02T13:07:04.326Z,5.13
2018-11-02T13:09:33.357Z,4.97
2018-11-02T13:12:02.001Z,4.13
2018-11-02T13:14:34.792Z,4.30
2018-11-02T13:17:03.699Z,4.93
2018-11-02T13:19:32.884Z,3.97
2018-11-02T13:22:01.928Z,4.03
2018-11-02T13:24:30.569Z,5.07
2018-11-02T13:26:59.294Z,4.90
2018-11-02T13:29:27.956Z,3.80
2018-11-02T13:31:56.688Z,6.13
2018-11-02T13:34:25.346Z,4.53
2018-11-02T13:36:54.126Z,4.20
2018-11-02T13:39:22.830Z,5.00
2018-11-02T13:41:51.570Z,4.37
2018-11-02T13:44:20.281Z,5.40
2018-11-02T13:46:48.989Z,4.30
2018-11-02T13:49:17.709Z,4.40
2018-11-02T13:51:46.513Z,4.20
2018-11-02T13:54:15.249Z,3.80
2018-11-02T13:56:43.977Z,5.50
2018-11-02T13:59:12.728Z,4.80
2018-11-02T14:01:41.379Z,4.33
2018-11-02T14:04:10.096Z,3.73
2018-11-02T14:06:38.871Z,3.53
2018-11-02T14:09:08.388Z,3.73
2018-11-02T14:11:37.147Z,3.70
2018-11-02T14:14:06.083Z,4.47
2018-11-02T14:16:34.801Z,3.90
2018-11-02T14:19:03.705Z,3.50
2018-11-02T14:21:32.413Z,4.70
2018-11-02T14:24:02.250Z,4.20
2018-11-02T14:26:31.013Z,5.00
2018-11-02T14:28:59.749Z,5.30
2018-11-02T14:31:28.525Z,4.70
2018-11-02T14:33:57.245Z,5.20
2018-11-02T14:36:25.920Z,4.80
2018-11-02T14:38:54.625Z,2.97
2018-11-02T14:41:26.916Z,4.00
2018-11-02T14:43:57.701Z,4.67
2018-11-02T14:46:27.467Z,4.13
2018-11-02T14:48:56.190Z,4.17
2018-11-02T14:51:24.898Z,4.73
2018-11-02T14:53:53.660Z,4.17
2018-11-02T14:56:22.308Z,4.00
2018-11-02T14:58:51.040Z,3.90
2018-11-02T15:01:19.743Z,3.50
2018-11-02T15:03:48.511Z,4.00
2018-11-02T15:06:17.224Z,3.90
2018-11-02T15:08:45.908Z,3.90
2018-11-02T15:11:14.739Z,4.40
2018-11-02T15:13:43.402Z,5.23
2018-11-02T15:16:12.109Z,4.27
2018-11-02T15:18:40.779Z,4.10
2018-11-02T15:21:09.534Z,4.00
2018-11-02T15:23:38.264Z,3.77
2018-11-02T15:26:07.136Z,3.43
2018-11-02T15:28:35.872Z,6.50
2018-11-02T15:31:04.909Z,4.30
2018-11-02T15:33:34.648Z,4.13
2018-11-02T15:36:03.659Z,4.03
2018-11-02T15:38:32.379Z,5.53
2018-11-02T15:41:01.153Z,3.73
2018-11-02T15:43:29.852Z,3.60
2018-11-02T15:45:58.518Z,4.90
2018-11-02T15:48:27.252Z,4.17
2018-11-02T15:50:55.982Z,5.13
2018-11-02T15:53:24.826Z,4.83
2018-11-02T15:55:53.500Z,4.60
2018-11-02T15:58:22.180Z,5.30
2018-11-02T16:00:50.862Z,4.87
2018-11-02T16:03:19.642Z,7.60
2018-11-02T16:05:49.359Z,6.63
2018-11-02T16:08:18.584Z,7.87
2018-11-02T16:10:47.298Z,10.20
2018-11-02T16:13:15.950Z,8.83
2018-11-02T16:15:45.454Z,6.33
2018-11-02T16:18:14.166Z,5.03
2018-11-02T16:20:43.206Z,8.50
2018-11-02T16:23:11.856Z,5.13
2018-11-02T16:25:40.560Z,4.33
2018-11-02T16:28:09.262Z,4.70
2018-11-02T16:30:37.948Z,6.17
2018-11-02T16:33:06.845Z,5.10
2018-11-02T16:35:35.582Z,4.67
2018-11-02T16:38:05.256Z,8.60
2018-11-02T16:40:34.144Z,4.27
2018-11-02T16:43:02.879Z,4.50
2018-11-02T16:45:31.717Z,4.43
2018-11-02T16:48:00.798Z,4.23
2018-11-02T16:50:29.618Z,4.30
2018-11-02T16:52:58.251Z,4.97
2018-11-02T16:55:27.279Z,5.27
2018-11-02T16:57:56.110Z,5.40
2018-11-02T17:00:24.614Z,6.90
2018-11-02T17:02:53.282Z,7.10
2018-11-02T17:05:22.054Z,5.87
2018-11-02T17:07:50.672Z,7.63
2018-11-02T17:10:19.334Z,5.20
2018-11-02T17:12:47.952Z,5.30
2018-11-02T17:15:16.680Z,5.77
2018-11-02T17:17:45.440Z,5.33
2018-11-02T17:20:16.669Z,11.37
2018-11-02T17:22:45.479Z,6.17
2018-11-02T17:25:14.583Z,6.27
2018-11-02T17:27:43.297Z,6.00
2018-11-02T17:30:18.107Z,4.60
2018-11-02T17:32:46.860Z,4.23
2018-11-02T17:35:15.583Z,4.73
2018-11-02T17:37:44.376Z,4.60
2018-11-02T17:40:14.226Z,6.93
2018-11-02T17:42:43.900Z,5.67
2018-11-02T17:45:12.623Z,5.63
2018-11-02T17:47:45.137Z,4.50
2018-11-02T17:50:14.812Z,4.63
2018-11-02T17:52:43.651Z,5.87
2018-11-02T17:55:12.290Z,6.33
2018-11-02T17:57:40.948Z,8.17
2018-11-02T18:00:11.403Z,6.93
2018-11-02T18:02:40.070Z,5.77
2018-11-02T18:05:09.346Z,5.43
2018-11-02T18:07:38.169Z,8.63
2018-11-02T18:10:08.772Z,6.53
2018-11-02T18:12:37.418Z,6.07
2018-11-02T18:15:06.993Z,6.43
2018-11-02T18:17:35.831Z,7.70
2018-11-02T18:20:05.002Z,6.23
2018-11-02T18:22:45.816Z,8.27
2018-11-02T18:25:14.521Z,7.53
2018-11-02T18:27:43.581Z,7.30
2018-11-02T18:30:12.820Z,8.00
2018-11-02T18:32:42.407Z,8.40
2018-11-02T18:35:11.611Z,13.13
2018-11-02T18:37:40.633Z,10.00
2018-11-02T18:40:10.774Z,9.30
2018-11-02T18:42:39.380Z,9.33
2018-11-02T18:45:10.238Z,9.90
2018-11-02T18:47:44.162Z,8.50
2018-11-02T18:50:13.801Z,9.60
2018-11-02T18:52:42.408Z,8.33
2018-11-02T18:55:11.146Z,10.40
2018-11-02T18:57:40.110Z,15.80
2018-11-02T19:00:09.961Z,15.67
2018-11-02T19:02:38.581Z,18.67
2018-11-02T19:05:10.524Z,20.23
2018-11-02T19:07:39.349Z,23.87
2018-11-02T19:10:09.680Z,21.40
2018-11-02T19:12:44.440Z,17.43
2018-11-02T19:15:15.475Z,19.33
2018-11-02T19:17:44.139Z,15.70
2018-11-02T19:20:14.307Z,19.03
2018-11-02T19:22:42.936Z,17.10
2018-11-02T19:25:12.821Z,15.80
2018-11-02T19:27:41.795Z,15.57
2018-11-02T19:30:11.798Z,17.00
2018-11-02T19:32:46.199Z,15.77
2018-11-02T19:35:15.227Z,14.70
2018-11-02T19:37:44.124Z,18.17
2018-11-02T19:40:13.923Z,14.80
2018-11-02T19:42:42.653Z,13.90
2018-11-02T19:45:21.517Z,13.27
2018-11-02T19:48:01.901Z,17.00
2018-11-02T19:50:32.742Z,15.97
2018-11-02T19:53:01.483Z,18.10
2018-11-02T19:55:30.337Z,14.70
2018-11-02T19:58:04.590Z,15.30
2018-11-02T20:00:33.392Z,16.90
2018-11-02T20:03:02.195Z,17.97
2018-11-02T20:05:30.904Z,16.33
2018-11-02T20:08:00.246Z,16.80
2018-11-02T20:10:29.013Z,15.43
2018-11-02T20:13:03.558Z,14.03
2018-11-02T20:15:35.945Z,15.37
2018-11-02T20:18:06.776Z,16.97
2018-11-02T20:20:35.466Z,17.50
2018-11-02T20:23:04.207Z,16.03
2018-11-02T20:25:32.934Z,18.33
2018-11-02T20:28:03.731Z,19.67
2018-11-02T20:30:32.649Z,15.50
2018-11-02T20:33:01.355Z,18.63
2018-11-02T20:35:31.054Z,16.90
2018-11-02T20:37:59.892Z,15.17
2018-11-02T20:40:29.477Z,20.20
2018-11-02T20:42:58.253Z,15.30
2018-11-02T20:48:40.041Z,17.43
2018-11-02T20:51:08.848Z,16.80
2018-11-02T20:53:37.496Z,16.87
2018-11-02T20:56:06.201Z,19.67
2018-11-02T20:58:34.896Z,18.10
2018-11-02T21:01:04.733Z,18.57
2018-11-02T21:03:39.962Z,17.10
2018-11-02T21:06:09.669Z,18.50
2018-11-02T21:08:38.398Z,17.47
2018-11-02T21:11:24.314Z,14.70
2018-11-02T21:13:52.926Z,15.27
2018-11-02T21:16:21.693Z,16.43
2018-11-02T21:18:50.248Z,15.47
2018-11-02T21:21:32.776Z,17.27
2018-11-02T21:24:01.569Z,14.80
2018-11-02T21:26:30.227Z,15.73
2018-11-02T21:28:59.032Z,14.17
2018-11-02T21:31:28.771Z,15.63
2018-11-02T21:33:57.555Z,14.00
2018-11-02T21:36:32.525Z,14.33
2018-11-02T21:39:01.156Z,14.40
2018-11-02T21:41:29.812Z,14.10
2018-11-02T21:43:58.471Z,15.30
2018-11-02T21:46:27.724Z,16.63
2018-11-02T21:48:56.499Z,13.90
2018-11-02T21:51:25.304Z,13.57
2018-11-02T21:53:53.971Z,14.07
2018-11-02T21:56:22.750Z,15.60
2018-11-02T21:58:51.454Z,15.00
2018-11-02T22:01:20.100Z,14.80
2018-11-02T22:03:48.760Z,14.00
2018-11-02T22:06:17.416Z,14.77
2018-11-02T22:08:46.148Z,13.77
2018-11-02T22:11:14.845Z,14.17
2018-11-02T22:13:43.519Z,15.83
2018-11-02T22:16:12.245Z,13.33
2018-11-02T22:18:40.928Z,12.87
2018-11-02T22:21:09.593Z,13.37
2018-11-02T22:23:38.280Z,16.00
2018-11-02T22:26:24.758Z,14.97
2018-11-02T22:28:53.456Z,13.40
2018-11-02T22:31:22.166Z,13.13
2018-11-02T22:34:05.302Z,13.90
2018-11-02T22:36:33.992Z,15.90
2018-11-02T22:39:02.771Z,13.80
2018-11-02T22:41:31.487Z,16.03
2018-11-02T22:44:01.255Z,15.33
2018-11-02T22:46:29.903Z,16.50
2018-11-02T22:48:58.606Z,14.00
2018-11-02T22:51:27.307Z,14.27
2018-11-02T22:53:55.977Z,14.10
2018-11-02T22:56:24.694Z,13.87
2018-11-02T22:58:53.546Z,13.60
2018-11-02T23:01:27.784Z,14.77
2018-11-02T23:03:58.250Z,14.07
2018-11-02T23:06:27.091Z,14.63
2018-11-02T23:08:56.066Z,13.43
2018-11-02T23:11:24.950Z,14.90
2018-11-02T23:13:53.909Z,15.77
2018-11-02T23:16:22.692Z,14.73
2018-11-02T23:18:51.439Z,13.87
2018-11-02T23:21:20.420Z,14.77
2018-11-02T23:23:49.040Z,14.40
2018-11-02T23:26:17.714Z,14.13
2018-11-02T23:28:46.411Z,15.47
2018-11-02T23:31:15.079Z,14.17
2018-11-02T23:33:57.529Z,14.97
2018-11-02T23:36:26.198Z,14.33
2018-11-02T23:38:54.898Z,14.70
2018-11-02T23:41:23.577Z,14.50
2018-11-02T23:43:52.240Z,14.03
2018-11-02T23:46:21.700Z,14.10
2018-11-02T23:48:50.420Z,17.10
2018-11-02T23:51:20.603Z,13.50
2018-11-02T23:53:49.298Z,14.83
2018-11-02T23:56:18.891Z,14.50
2018-11-02T23:58:48.717Z,15.67
